createdAt,value
2019-03-27T00:00:43.770Z,1001.08
2019-03-27T00:01:39.340Z,1001.10
2019-03-27T00:02:39.338Z,1001.06
2019-03-27T00:03:39.344Z,1001.03
2019-03-27T00:06:14.579Z,1001.03
2019-03-27T00:07:11.084Z,1001.04
2019-03-27T00:08:11.085Z,1001.03
2019-03-27T00:09:32.584Z,1001.00
2019-03-27T00:10:11.582Z,1001.02
2019-03-27T00:11:16.351Z,1001.02
2019-03-27T00:12:11.584Z,1001.01
2019-03-27T00:13:12.084Z,1001.03
2019-03-27T00:15:43.442Z,1001.01
2019-03-27T00:16:47.453Z,1000.98
2019-03-27T00:17:43.459Z,1000.99
2019-03-27T00:18:43.957Z,1000.99
2019-03-27T00:19:43.948Z,1000.99
2019-03-27T00:20:46.883Z,1000.99
2019-03-27T00:21:43.956Z,1001.01
2019-03-27T00:22:48.450Z,1001.01
2019-03-27T00:23:44.449Z,1001.07
2019-03-27T00:25:05.445Z,1001.00
2019-03-27T00:25:44.454Z,1001.03
2019-03-27T00:26:44.948Z,1001.04
2019-03-27T00:27:46.392Z,1001.05
2019-03-27T00:28:48.448Z,1001.03
2019-03-27T00:29:44.959Z,1001.02
2019-03-27T00:30:44.948Z,1001.01
2019-03-27T00:32:06.449Z,1001.00
2019-03-27T00:32:45.448Z,1001.02
2019-03-27T00:34:10.448Z,1000.99
2019-03-27T00:34:45.447Z,1001.00
2019-03-27T00:35:45.948Z,1000.99
2019-03-27T00:36:45.947Z,1000.97
2019-03-27T00:37:45.948Z,1000.96
2019-03-27T00:38:45.947Z,1000.99
2019-03-27T00:39:49.447Z,1000.98
2019-03-27T00:40:46.449Z,1000.98
2019-03-27T00:41:47.388Z,1001.03
2019-03-27T00:42:46.451Z,1001.02
2019-03-27T00:43:46.948Z,1001.03
2019-03-27T00:44:50.446Z,1001.04
2019-03-27T00:45:46.953Z,1001.03
2019-03-27T00:46:46.949Z,1001.03
2019-03-27T00:47:49.452Z,1001.02
2019-03-27T00:48:47.452Z,1001.03
2019-03-27T00:49:47.454Z,1001.05
2019-03-27T00:50:51.457Z,1001.08
2019-03-27T00:51:47.947Z,1001.05
2019-03-27T00:52:47.947Z,1001.07
2019-03-27T00:53:47.947Z,1001.08
2019-03-27T00:54:48.076Z,1001.07
2019-03-27T00:55:48.441Z,1001.05
2019-03-27T00:56:51.446Z,1001.08
2019-03-27T00:57:48.446Z,1001.08
2019-03-27T00:58:48.446Z,1001.06
2019-03-27T00:59:48.946Z,1001.07
2019-03-27T01:00:48.946Z,1001.14
2019-03-27T01:01:52.455Z,1001.10
2019-03-27T01:02:48.946Z,1001.14
2019-03-27T01:03:49.442Z,1001.14
2019-03-27T01:04:49.445Z,1001.13
2019-03-27T01:05:49.452Z,1001.14
2019-03-27T01:06:50.965Z,1001.16
2019-03-27T01:07:55.445Z,1001.12
2019-03-27T01:08:49.953Z,1001.11
2019-03-27T01:09:49.954Z,1001.11
2019-03-27T01:10:49.945Z,1001.07
2019-03-27T01:11:52.445Z,1001.05
2019-03-27T01:12:50.445Z,1001.07
2019-03-27T01:13:53.445Z,1001.12
2019-03-27T01:15:11.452Z,1001.12
2019-03-27T01:15:50.945Z,1001.13
2019-03-27T01:16:50.945Z,1001.09
2019-03-27T01:17:50.945Z,1001.15
2019-03-27T01:18:54.951Z,1001.16
2019-03-27T01:19:51.449Z,1001.13
2019-03-27T01:20:51.445Z,1001.12
2019-03-27T01:21:51.511Z,1001.10
2019-03-27T01:22:51.445Z,1001.06
2019-03-27T01:23:51.445Z,1001.08
2019-03-27T01:24:55.944Z,1001.07
2019-03-27T01:25:51.950Z,1001.03
2019-03-27T01:26:51.944Z,1001.04
2019-03-27T01:27:51.946Z,1001.03
2019-03-27T01:28:52.447Z,1001.03
2019-03-27T01:29:52.479Z,1001.09
2019-03-27T01:30:55.947Z,1001.03
2019-03-27T01:31:52.447Z,1001.04
2019-03-27T01:32:52.946Z,1001.03
2019-03-27T01:33:52.946Z,1001.06
2019-03-27T01:34:52.944Z,1001.06
2019-03-27T01:35:56.943Z,1001.04
2019-03-27T01:36:53.444Z,1001.05
2019-03-27T01:37:53.444Z,1001.09
2019-03-27T01:38:53.445Z,1001.10
2019-03-27T01:39:53.444Z,1001.11
2019-03-27T01:40:54.896Z,1001.14
2019-03-27T01:41:56.943Z,1001.13
2019-03-27T01:42:53.946Z,1001.11
2019-03-27T01:43:53.943Z,1001.08
2019-03-27T01:44:53.945Z,1001.08
2019-03-27T01:45:54.448Z,1001.09
2019-03-27T01:46:57.944Z,1001.11
2019-03-27T01:47:54.444Z,1001.13
2019-03-27T01:48:54.443Z,1001.05
2019-03-27T01:51:26.181Z,1001.16
2019-03-27T01:52:29.683Z,1001.17
2019-03-27T01:53:26.186Z,1001.16
2019-03-27T01:54:47.683Z,1001.13
2019-03-27T01:55:26.683Z,1001.10
2019-03-27T01:56:26.683Z,1001.07
2019-03-27T01:57:30.684Z,1001.04
2019-03-27T01:58:27.183Z,1001.05
2019-03-27T01:59:28.626Z,1001.10
2019-03-27T02:00:27.185Z,1001.03
2019-03-27T02:01:27.183Z,1001.03
2019-03-27T02:02:27.196Z,1001.08
2019-03-27T02:03:30.691Z,1001.03
2019-03-27T02:04:27.681Z,1001.00
2019-03-27T02:05:27.684Z,1001.04
2019-03-27T02:06:27.682Z,1001.07
2019-03-27T02:07:28.195Z,1001.08
2019-03-27T02:08:32.193Z,1001.04
2019-03-27T02:09:28.204Z,1001.06
2019-03-27T02:10:28.182Z,1001.02
2019-03-27T02:11:28.685Z,1001.02
2019-03-27T02:12:28.692Z,1001.03
2019-03-27T02:13:28.682Z,1000.98
2019-03-27T02:14:32.189Z,1001.01
2019-03-27T02:15:29.182Z,1000.98
2019-03-27T02:16:29.187Z,1000.96
2019-03-27T02:17:29.179Z,1001.00
2019-03-27T02:18:29.198Z,1000.99
2019-03-27T02:19:33.184Z,1001.01
2019-03-27T02:20:50.681Z,1000.99
2019-03-27T02:21:29.681Z,1001.01
2019-03-27T02:22:31.682Z,1001.01
2019-03-27T02:23:30.181Z,1001.03
2019-03-27T02:24:33.182Z,1001.03
2019-03-27T02:25:30.181Z,1001.05
2019-03-27T02:26:30.181Z,1001.06
2019-03-27T02:27:30.684Z,1001.05
2019-03-27T02:28:51.681Z,1001.03
2019-03-27T02:29:55.182Z,1001.05
2019-03-27T02:30:30.682Z,1001.02
2019-03-27T02:31:52.235Z,1001.06
2019-03-27T02:32:31.188Z,1001.03
2019-03-27T02:33:31.186Z,1001.03
2019-03-27T02:34:31.182Z,1001.04
2019-03-27T02:35:35.185Z,1001.08
2019-03-27T02:36:31.683Z,1001.04
2019-03-27T02:37:31.694Z,1001.09
2019-03-27T02:38:31.682Z,1001.05
2019-03-27T02:39:31.689Z,1001.08
2019-03-27T02:40:32.181Z,1001.06
2019-03-27T02:41:35.187Z,1001.08
2019-03-27T02:42:32.188Z,1001.12
2019-03-27T02:43:32.202Z,1001.09
2019-03-27T02:44:32.682Z,1001.13
2019-03-27T02:45:32.686Z,1001.10
2019-03-27T02:46:36.685Z,1001.12
2019-03-27T02:47:32.680Z,1001.13
2019-03-27T02:48:33.187Z,1001.12
2019-03-27T02:49:33.181Z,1001.15
2019-03-27T02:50:34.160Z,1001.13
2019-03-27T02:51:33.183Z,1001.16
2019-03-27T02:52:58.681Z,1001.11
2019-03-27T02:53:33.680Z,1001.09
2019-03-27T02:54:33.682Z,1001.13
2019-03-27T02:55:33.681Z,1001.14
2019-03-27T02:56:34.184Z,1001.14
2019-03-27T02:57:34.180Z,1001.15
2019-03-27T02:58:37.681Z,1001.10
2019-03-27T02:59:34.185Z,1001.14
2019-03-27T03:00:34.679Z,1001.16
2019-03-27T03:01:34.679Z,1001.13
2019-03-27T03:02:34.702Z,1001.14
2019-03-27T03:03:38.686Z,1001.16
2019-03-27T03:04:56.178Z,1001.15
2019-03-27T03:05:56.181Z,1001.10
2019-03-27T03:06:35.181Z,1001.13
2019-03-27T03:07:35.179Z,1001.10
2019-03-27T03:08:35.699Z,1001.12
2019-03-27T03:09:38.679Z,1001.14
2019-03-27T03:10:35.680Z,1001.11
2019-03-27T03:11:35.679Z,1001.10
2019-03-27T03:12:36.208Z,1001.09
2019-03-27T03:13:57.199Z,1001.12
2019-03-27T03:14:39.698Z,1001.08
2019-03-27T03:15:36.184Z,1001.03
2019-03-27T03:16:42.518Z,1001.09
2019-03-27T03:17:37.617Z,1001.02
2019-03-27T03:18:36.680Z,1001.05
2019-03-27T03:19:36.684Z,1001.02
2019-03-27T03:20:40.683Z,1001.01
2019-03-27T03:23:29.907Z,1001.07
2019-03-27T03:24:29.925Z,1001.05
2019-03-27T03:25:08.921Z,1001.03
2019-03-27T03:26:12.429Z,1001.04
2019-03-27T03:27:11.416Z,1001.05
2019-03-27T03:28:32.416Z,1001.02
2019-03-27T03:29:31.872Z,1001.07
2019-03-27T03:30:09.419Z,1001.06
2019-03-27T03:31:13.441Z,1001.08
2019-03-27T03:33:41.296Z,1001.14
2019-03-27T03:34:41.289Z,1001.13
2019-03-27T03:35:41.283Z,1001.16
2019-03-27T03:36:45.280Z,1001.16
2019-03-27T03:37:41.778Z,1001.20
2019-03-27T03:38:41.779Z,1001.15
2019-03-27T03:39:41.779Z,1001.21
2019-03-27T03:40:42.278Z,1001.19
2019-03-27T03:41:42.279Z,1001.18
2019-03-27T03:42:46.297Z,1001.16
2019-03-27T03:43:42.374Z,1001.17
2019-03-27T03:45:03.789Z,1001.18
2019-03-27T03:45:42.779Z,1001.18
2019-03-27T03:46:58.902Z,1001.15
2019-03-27T03:47:42.786Z,1001.16
2019-03-27T03:48:46.278Z,1001.16
2019-03-27T03:49:43.279Z,1001.19
2019-03-27T03:50:43.297Z,1001.17
2019-03-27T03:51:43.303Z,1001.22
2019-03-27T03:52:45.857Z,1001.25
2019-03-27T03:53:47.302Z,1001.27
2019-03-27T03:54:43.775Z,1001.24
2019-03-27T03:55:43.778Z,1001.25
2019-03-27T03:56:44.281Z,1001.24
2019-03-27T03:57:44.287Z,1001.26
2019-03-27T03:58:44.278Z,1001.25
2019-03-27T03:59:48.399Z,1001.27
2019-03-27T04:01:05.776Z,1001.24
2019-03-27T04:01:44.777Z,1001.23
2019-03-27T04:02:44.780Z,1001.23
2019-03-27T04:03:44.783Z,1001.25
2019-03-27T04:04:45.276Z,1001.24
2019-03-27T04:05:48.288Z,1001.26
2019-03-27T04:06:45.276Z,1001.25
2019-03-27T04:07:45.282Z,1001.26
2019-03-27T04:08:45.781Z,1001.27
2019-03-27T04:09:45.774Z,1001.28
2019-03-27T04:10:49.282Z,1001.30
2019-03-27T04:11:45.777Z,1001.30
2019-03-27T04:12:46.277Z,1001.29
2019-03-27T04:14:07.275Z,1001.30
2019-03-27T04:14:46.278Z,1001.28
2019-03-27T04:15:46.277Z,1001.27
2019-03-27T04:16:50.334Z,1001.29
2019-03-27T04:17:46.796Z,1001.31
2019-03-27T04:18:46.779Z,1001.27
2019-03-27T04:19:48.212Z,1001.30
2019-03-27T04:20:46.776Z,1001.30
2019-03-27T04:22:11.775Z,1001.30
2019-03-27T04:22:47.277Z,1001.35
2019-03-27T04:23:47.278Z,1001.34
2019-03-27T04:24:47.283Z,1001.38
2019-03-27T04:26:08.420Z,1001.38
2019-03-27T04:26:47.776Z,1001.39
2019-03-27T04:27:51.776Z,1001.41
2019-03-27T04:28:47.808Z,1001.38
2019-03-27T04:29:48.271Z,1001.44
2019-03-27T04:30:48.275Z,1001.44
2019-03-27T04:31:48.276Z,1001.41
2019-03-27T04:32:48.275Z,1001.40
2019-03-27T04:34:13.775Z,1001.40
2019-03-27T04:34:48.775Z,1001.43
2019-03-27T04:35:48.776Z,1001.42
2019-03-27T04:36:48.784Z,1001.42
2019-03-27T04:37:49.282Z,1001.45
2019-03-27T04:38:49.274Z,1001.47
2019-03-27T04:39:54.862Z,1001.44
2019-03-27T04:40:49.275Z,1001.49
2019-03-27T04:41:49.776Z,1001.50
2019-03-27T04:42:49.773Z,1001.52
2019-03-27T04:43:49.775Z,1001.50
2019-03-27T04:44:53.779Z,1001.50
2019-03-27T04:45:50.274Z,1001.48
2019-03-27T04:46:50.273Z,1001.47
2019-03-27T04:47:50.276Z,1001.48
2019-03-27T04:48:50.328Z,1001.49
2019-03-27T04:49:50.776Z,1001.50
2019-03-27T04:50:53.779Z,1001.47
2019-03-27T04:51:53.215Z,1001.47
2019-03-27T04:52:50.777Z,1001.47
2019-03-27T04:53:50.770Z,1001.49
2019-03-27T04:56:26.504Z,1001.50
2019-03-27T04:57:22.513Z,1001.49
2019-03-27T04:58:22.592Z,1001.46
2019-03-27T04:59:23.023Z,1001.44
2019-03-27T05:01:57.872Z,1001.50
2019-03-27T05:02:54.383Z,1001.47
2019-03-27T05:04:15.382Z,1001.47
2019-03-27T05:05:15.881Z,1001.48
2019-03-27T05:05:54.889Z,1001.50
2019-03-27T05:06:54.881Z,1001.44
2019-03-27T05:07:58.882Z,1001.44
2019-03-27T05:09:16.413Z,1001.47
2019-03-27T05:10:16.385Z,1001.47
2019-03-27T05:10:55.381Z,1001.40
2019-03-27T05:11:55.383Z,1001.45
2019-03-27T05:12:55.381Z,1001.41
2019-03-27T05:13:58.879Z,1001.41
2019-03-27T05:16:29.240Z,1001.47
2019-03-27T05:17:27.245Z,1001.46
2019-03-27T05:18:27.253Z,1001.48
2019-03-27T05:19:31.747Z,1001.48
2019-03-27T05:20:48.745Z,1001.46
2019-03-27T05:21:27.745Z,1001.46
2019-03-27T05:22:27.745Z,1001.50
2019-03-27T05:23:28.249Z,1001.53
2019-03-27T05:24:28.244Z,1001.49
2019-03-27T05:25:31.245Z,1001.48
2019-03-27T05:26:28.244Z,1001.50
2019-03-27T05:27:28.755Z,1001.53
2019-03-27T05:28:28.755Z,1001.52
2019-03-27T05:29:30.226Z,1001.50
2019-03-27T05:30:32.744Z,1001.47
2019-03-27T05:31:29.244Z,1001.51
2019-03-27T05:32:29.244Z,1001.53
2019-03-27T05:33:32.454Z,1001.53
2019-03-27T05:34:29.280Z,1001.51
2019-03-27T05:35:30.725Z,1001.47
2019-03-27T05:38:25.036Z,1001.53
2019-03-27T05:39:04.051Z,1001.50
2019-03-27T05:40:04.046Z,1001.55
2019-03-27T05:41:04.545Z,1001.51
2019-03-27T05:42:08.049Z,1001.54
2019-03-27T05:43:04.546Z,1001.54
2019-03-27T05:44:04.548Z,1001.53
2019-03-27T05:45:05.045Z,1001.57
2019-03-27T05:46:05.046Z,1001.59
2019-03-27T05:47:05.045Z,1001.62
2019-03-27T05:48:09.045Z,1001.62
2019-03-27T05:49:05.544Z,1001.61
2019-03-27T05:50:05.545Z,1001.61
2019-03-27T05:51:05.544Z,1001.59
2019-03-27T05:52:05.549Z,1001.55
2019-03-27T05:53:06.043Z,1001.54
2019-03-27T05:54:09.041Z,1001.54
2019-03-27T05:55:06.057Z,1001.56
2019-03-27T05:56:06.046Z,1001.59
2019-03-27T05:57:06.544Z,1001.60
2019-03-27T05:58:06.542Z,1001.64
2019-03-27T06:00:41.782Z,1001.74
2019-03-27T06:01:41.791Z,1001.79
2019-03-27T06:02:41.797Z,1001.81
2019-03-27T06:03:42.294Z,1001.82
2019-03-27T06:04:45.790Z,1001.83
2019-03-27T06:05:42.290Z,1001.89
2019-03-27T06:06:42.290Z,1001.83
2019-03-27T06:07:42.794Z,1001.86
2019-03-27T06:08:42.789Z,1001.87
2019-03-27T06:09:42.789Z,1001.89
2019-03-27T06:10:46.791Z,1001.86
2019-03-27T06:11:43.297Z,1001.90
2019-03-27T06:12:43.298Z,1001.92
2019-03-27T06:13:43.288Z,1001.91
2019-03-27T06:14:43.289Z,1001.90
2019-03-27T06:15:45.322Z,1001.93
2019-03-27T06:16:46.791Z,1001.96
2019-03-27T06:17:43.791Z,1001.96
2019-03-27T06:18:43.792Z,1002.00
2019-03-27T06:19:44.289Z,1002.02
2019-03-27T06:20:44.288Z,1002.04
2019-03-27T06:21:48.290Z,1002.06
2019-03-27T06:22:44.294Z,1002.02
2019-03-27T06:23:45.723Z,1002.10
2019-03-27T06:25:05.800Z,1002.07
2019-03-27T06:25:44.787Z,1002.08
2019-03-27T06:26:48.292Z,1002.04
2019-03-27T06:27:46.243Z,1002.04
2019-03-27T06:28:45.288Z,1002.04
2019-03-27T06:29:45.287Z,1002.01
2019-03-27T06:30:45.288Z,1002.00
2019-03-27T06:31:49.288Z,1002.01
2019-03-27T06:32:45.786Z,1001.99
2019-03-27T06:33:45.789Z,1001.94
2019-03-27T06:34:45.790Z,1001.95
2019-03-27T06:35:45.787Z,1001.98
2019-03-27T06:36:46.287Z,1001.95
2019-03-27T06:37:49.288Z,1001.96
2019-03-27T06:38:46.291Z,1002.00
2019-03-27T06:39:46.286Z,1001.95
2019-03-27T06:40:46.787Z,1001.96
2019-03-27T06:41:46.787Z,1001.94
2019-03-27T06:42:52.792Z,1001.99
2019-03-27T06:43:46.786Z,1002.00
2019-03-27T06:44:47.286Z,1002.03
2019-03-27T06:45:47.287Z,1002.02
2019-03-27T06:46:47.289Z,1002.06
2019-03-27T06:47:47.291Z,1002.06
2019-03-27T06:48:51.791Z,1002.00
2019-03-27T06:49:49.720Z,1002.02
2019-03-27T06:50:47.121Z,1002.02
2019-03-27T06:51:47.785Z,1002.02
2019-03-27T06:52:47.786Z,1001.98
2019-03-27T06:53:48.286Z,1001.98
2019-03-27T06:56:43.988Z,1002.02
2019-03-27T06:57:22.994Z,1002.04
2019-03-27T06:58:23.001Z,1002.08
2019-03-27T06:59:23.505Z,1002.08
2019-03-27T07:00:26.997Z,1002.12
2019-03-27T07:01:23.567Z,1002.06
2019-03-27T07:02:23.499Z,1002.08
2019-03-27T07:06:30.163Z,1002.17
2019-03-27T07:07:28.658Z,1002.21
2019-03-27T07:09:58.390Z,1002.26
2019-03-27T07:10:58.399Z,1002.31
2019-03-27T07:13:33.711Z,1002.40
2019-03-27T07:14:33.720Z,1002.45
2019-03-27T07:15:35.751Z,1002.45
2019-03-27T07:18:09.957Z,1002.49
2019-03-27T07:19:05.463Z,1002.49
2019-03-27T07:20:05.460Z,1002.46
2019-03-27T07:21:05.960Z,1002.47
2019-03-27T07:22:05.176Z,1002.47
2019-03-27T07:23:05.963Z,1002.52
2019-03-27T07:24:09.958Z,1002.53
2019-03-27T07:25:06.462Z,1002.56
2019-03-27T07:29:13.256Z,1002.62
2019-03-27T07:30:09.266Z,1002.61
2019-03-27T07:31:09.264Z,1002.62
2019-03-27T07:32:09.771Z,1002.62
2019-03-27T07:33:32.221Z,1002.62
2019-03-27T07:34:13.270Z,1002.65
2019-03-27T07:35:09.114Z,1002.68
2019-03-27T07:36:10.698Z,1002.64
2019-03-27T07:37:10.263Z,1002.62
2019-03-27T07:38:10.275Z,1002.67
2019-03-27T07:39:14.267Z,1002.69
2019-03-27T07:40:10.263Z,1002.68
2019-03-27T07:41:12.200Z,1002.69
2019-03-27T07:42:10.769Z,1002.72
2019-03-27T07:43:10.774Z,1002.72
2019-03-27T07:44:10.763Z,1002.76
2019-03-27T07:45:36.197Z,1002.75
2019-03-27T07:46:11.280Z,1002.76
2019-03-27T07:47:11.263Z,1002.77
2019-03-27T07:48:11.261Z,1002.79
2019-03-27T07:49:13.763Z,1002.78
2019-03-27T07:50:36.770Z,1002.78
2019-03-27T07:51:11.762Z,1002.81
2019-03-27T07:52:11.763Z,1002.78
2019-03-27T07:53:12.263Z,1002.82
2019-03-27T07:54:12.275Z,1002.82
2019-03-27T07:55:19.667Z,1002.84
2019-03-27T07:58:07.986Z,1002.81
2019-03-27T07:58:46.993Z,1002.82
2019-03-27T07:59:46.584Z,1002.80
2019-03-27T08:00:46.673Z,1002.76
2019-03-27T08:02:11.995Z,1002.77
2019-03-27T08:02:47.494Z,1002.76
2019-03-27T08:03:47.495Z,1002.75
2019-03-27T08:06:19.228Z,1002.75
2019-03-27T08:07:26.981Z,1002.73
2019-03-27T08:08:19.234Z,1002.76
2019-03-27T08:09:22.924Z,1002.80
2019-03-27T08:10:19.735Z,1002.80
2019-03-27T08:11:19.806Z,1002.81
2019-03-27T08:12:19.734Z,1002.82
2019-03-27T08:13:23.734Z,1002.87
2019-03-27T08:14:20.233Z,1002.86
2019-03-27T08:15:20.235Z,1002.84
2019-03-27T08:16:20.235Z,1002.85
2019-03-27T08:17:20.743Z,1002.87
2019-03-27T08:18:20.738Z,1002.85
2019-03-27T08:19:24.733Z,1002.85
2019-03-27T08:20:20.733Z,1002.84
2019-03-27T08:22:52.494Z,1002.89
2019-03-27T08:23:52.478Z,1002.88
2019-03-27T08:24:56.475Z,1002.87
2019-03-27T08:25:54.413Z,1002.90
2019-03-27T08:26:52.975Z,1002.93
2019-03-27T08:27:52.975Z,1002.92
2019-03-27T08:28:52.977Z,1002.90
2019-03-27T08:29:53.475Z,1002.87
2019-03-27T08:30:57.477Z,1002.85
2019-03-27T08:31:53.477Z,1002.85
2019-03-27T08:32:53.474Z,1002.87
2019-03-27T08:33:53.973Z,1002.86
2019-03-27T08:35:15.943Z,1002.87
2019-03-27T08:35:53.293Z,1002.87
2019-03-27T08:36:57.486Z,1002.88
2019-03-27T08:37:53.975Z,1002.87
2019-03-27T08:38:54.488Z,1002.86
2019-03-27T08:41:25.869Z,1002.88
2019-03-27T08:42:28.863Z,1002.90
2019-03-27T08:43:46.852Z,1002.92
2019-03-27T08:44:26.351Z,1002.96
2019-03-27T08:45:26.354Z,1002.97
2019-03-27T08:46:26.351Z,1002.94
2019-03-27T08:47:53.354Z,1002.95
2019-03-27T08:48:48.807Z,1002.95
2019-03-27T08:49:47.850Z,1002.93
2019-03-27T08:50:49.856Z,1002.95
2019-03-27T08:51:26.851Z,1002.96
2019-03-27T08:52:28.284Z,1002.99
2019-03-27T08:53:53.358Z,1002.97
2019-03-27T08:54:48.350Z,1002.97
2019-03-27T08:55:31.291Z,1002.99
2019-03-27T08:56:27.350Z,1003.04
2019-03-27T08:59:02.036Z,1003.04
2019-03-27T08:59:59.093Z,1002.97
2019-03-27T09:00:59.092Z,1002.90
2019-03-27T09:02:01.593Z,1002.93
2019-03-27T09:06:05.758Z,1002.92
2019-03-27T09:07:05.764Z,1002.92
2019-03-27T09:08:06.264Z,1002.93
2019-03-27T09:09:06.266Z,1002.96
2019-03-27T09:11:41.416Z,1002.96
2019-03-27T09:12:41.420Z,1002.95
2019-03-27T09:13:41.932Z,1002.95
2019-03-27T09:14:41.923Z,1002.92
2019-03-27T09:15:45.453Z,1002.95
2019-03-27T09:16:41.921Z,1002.96
2019-03-27T09:17:42.422Z,1002.94
2019-03-27T09:19:03.422Z,1002.94
2019-03-27T09:19:42.425Z,1002.97
2019-03-27T09:21:06.926Z,1002.96
2019-03-27T09:22:03.924Z,1002.97
2019-03-27T09:22:42.921Z,1003.02
2019-03-27T09:23:45.572Z,1003.05
2019-03-27T09:24:42.939Z,1003.06
2019-03-27T09:25:42.526Z,1003.04
2019-03-27T09:27:07.931Z,1003.07
2019-03-27T09:27:43.431Z,1003.07
2019-03-27T09:30:15.033Z,1002.99
2019-03-27T09:31:44.822Z,1003.01
2019-03-27T09:33:49.770Z,1003.03
2019-03-27T09:34:49.777Z,1003.04
2019-03-27T09:35:49.824Z,1003.06
2019-03-27T09:36:52.280Z,1003.08
2019-03-27T09:37:53.778Z,1003.06
2019-03-27T09:38:50.278Z,1003.10
2019-03-27T09:39:50.277Z,1003.09
2019-03-27T09:42:22.013Z,1003.09
2019-03-27T09:43:25.604Z,1003.13
2019-03-27T09:44:22.528Z,1003.14
2019-03-27T09:45:22.522Z,1003.14
2019-03-27T09:46:22.528Z,1003.12
2019-03-27T09:47:22.524Z,1003.14
2019-03-27T09:48:26.521Z,1003.11
2019-03-27T09:49:23.020Z,1003.11
2019-03-27T09:50:23.022Z,1003.10
2019-03-27T09:51:23.018Z,1003.11
2019-03-27T09:52:44.522Z,1003.11
2019-03-27T09:53:28.043Z,1003.14
2019-03-27T09:54:23.534Z,1003.18
2019-03-27T09:55:23.547Z,1003.13
2019-03-27T09:56:24.021Z,1003.13
2019-03-27T09:57:24.019Z,1003.12
2019-03-27T09:58:24.024Z,1003.14
2019-03-27T09:59:28.023Z,1003.20
2019-03-27T10:00:38.520Z,1003.18
2019-03-27T10:01:24.525Z,1003.17
2019-03-27T10:02:45.520Z,1003.18
2019-03-27T10:03:23.994Z,1003.14
2019-03-27T10:04:49.520Z,1003.15
2019-03-27T10:05:25.020Z,1003.15
2019-03-27T10:06:25.020Z,1003.11
2019-03-27T10:07:25.020Z,1003.11
2019-03-27T10:08:46.520Z,1003.13
2019-03-27T10:09:25.520Z,1003.12
2019-03-27T10:10:29.023Z,1003.14
2019-03-27T10:11:25.520Z,1003.11
2019-03-27T10:12:47.020Z,1003.11
2019-03-27T10:13:26.019Z,1003.12
2019-03-27T10:14:47.714Z,1003.11
2019-03-27T10:15:29.020Z,1003.11
2019-03-27T10:16:47.522Z,1003.12
2019-03-27T10:17:26.522Z,1003.13
2019-03-27T10:18:26.520Z,1003.15
2019-03-27T10:19:26.526Z,1003.15
2019-03-27T10:20:53.552Z,1003.12
2019-03-27T10:21:27.041Z,1003.12
2019-03-27T10:22:48.031Z,1003.12
2019-03-27T10:23:27.017Z,1003.09
2019-03-27T10:24:27.520Z,1003.10
2019-03-27T10:27:08.911Z,1003.10
2019-03-27T10:28:02.911Z,1003.15
2019-03-27T10:29:03.415Z,1003.18
2019-03-27T10:30:03.413Z,1003.19
2019-03-27T10:31:06.912Z,1003.18
2019-03-27T10:32:03.420Z,1003.17
2019-03-27T10:33:24.911Z,1003.16
2019-03-27T10:34:03.912Z,1003.12
2019-03-27T10:35:03.912Z,1003.12
2019-03-27T10:37:38.701Z,1003.12
2019-03-27T10:38:41.522Z,1003.06
2019-03-27T10:39:38.178Z,1003.05
2019-03-27T10:40:38.270Z,1003.07
2019-03-27T10:41:44.142Z,1003.08
2019-03-27T10:43:00.212Z,1003.03
2019-03-27T10:43:39.208Z,1003.03
2019-03-27T10:44:39.211Z,1003.03
2019-03-27T10:46:00.718Z,1003.02
2019-03-27T10:46:40.671Z,1003.00
2019-03-27T10:49:14.890Z,1003.01
2019-03-27T10:50:17.943Z,1003.02
2019-03-27T10:52:50.146Z,1003.07
2019-03-27T10:53:46.645Z,1002.97
2019-03-27T10:54:46.643Z,1002.96
2019-03-27T10:55:47.143Z,1002.94
2019-03-27T10:56:47.142Z,1002.99
2019-03-27T10:57:47.144Z,1003.00
2019-03-27T10:58:51.143Z,1003.03
2019-03-27T10:59:47.641Z,1003.00
2019-03-27T11:00:47.643Z,1003.00
2019-03-27T11:01:47.689Z,1003.05
2019-03-27T11:02:47.643Z,1003.08
2019-03-27T11:03:47.644Z,1003.06
2019-03-27T11:04:50.142Z,1003.05
2019-03-27T11:05:48.153Z,1003.03
2019-03-27T11:06:48.142Z,1003.00
2019-03-27T11:07:48.144Z,1003.04
2019-03-27T11:09:11.122Z,1003.05
2019-03-27T11:09:52.142Z,1003.06
2019-03-27T11:10:48.641Z,1003.06
2019-03-27T11:11:48.643Z,1003.06
2019-03-27T11:12:49.146Z,1003.09
2019-03-27T11:13:49.170Z,1003.11
2019-03-27T11:14:49.143Z,1003.16
2019-03-27T11:15:53.160Z,1003.14
2019-03-27T11:16:49.643Z,1003.09
2019-03-27T11:17:49.644Z,1003.14
2019-03-27T11:18:49.644Z,1003.11
2019-03-27T11:19:49.644Z,1003.10
2019-03-27T11:21:04.142Z,1003.11
2019-03-27T11:21:53.141Z,1003.11
2019-03-27T11:22:50.142Z,1003.12
2019-03-27T11:23:50.162Z,1003.10
2019-03-27T11:24:50.644Z,1003.09
2019-03-27T11:27:26.012Z,1003.07
2019-03-27T11:28:22.023Z,1003.09
2019-03-27T11:30:55.760Z,1003.07
2019-03-27T11:31:53.767Z,1003.05
2019-03-27T11:32:57.267Z,1003.02
2019-03-27T11:34:15.272Z,1003.05
2019-03-27T11:35:15.267Z,1003.07
2019-03-27T11:35:54.267Z,1003.07
2019-03-27T11:36:53.736Z,1003.05
2019-03-27T11:38:00.228Z,1003.09
2019-03-27T11:38:54.777Z,1003.18
2019-03-27T11:39:54.769Z,1003.17
2019-03-27T11:41:15.767Z,1003.03
2019-03-27T11:43:30.010Z,1003.04
2019-03-27T11:44:47.523Z,1003.01
2019-03-27T11:45:26.527Z,1003.03
2019-03-27T11:47:58.277Z,1003.06
2019-03-27T11:49:01.776Z,1003.03
2019-03-27T11:51:29.895Z,1003.15
2019-03-27T11:52:30.018Z,1003.17
2019-03-27T11:53:30.411Z,1003.18
2019-03-27T11:56:05.831Z,1003.31
2019-03-27T11:57:05.911Z,1003.44
2019-03-27T11:58:05.837Z,1003.60
2019-03-27T11:59:06.353Z,1003.18
2019-03-27T12:00:09.843Z,1003.02
2019-03-27T12:01:05.688Z,1003.04
2019-03-27T12:02:06.331Z,1003.04
2019-03-27T12:03:06.840Z,1002.99
2019-03-27T12:04:27.909Z,1003.03
2019-03-27T12:05:06.840Z,1003.04
2019-03-27T12:06:10.844Z,1003.05
2019-03-27T12:07:07.336Z,1003.06
2019-03-27T12:09:50.297Z,1003.08
2019-03-27T12:10:50.207Z,1003.22
2019-03-27T12:11:53.814Z,1003.39
2019-03-27T12:12:49.662Z,1004.36
2019-03-27T12:13:50.759Z,1003.77
2019-03-27T12:14:50.784Z,1004.81
2019-03-27T12:15:56.684Z,1004.27
2019-03-27T12:16:50.769Z,1004.49
2019-03-27T12:17:54.932Z,1004.39
2019-03-27T12:18:50.737Z,1005.38
2019-03-27T12:22:57.896Z,1003.03
2019-03-27T12:23:31.063Z,1003.53
2019-03-27T12:24:31.063Z,1004.12
2019-03-27T12:25:31.063Z,1003.08
2019-03-27T12:26:31.569Z,1003.02
2019-03-27T12:27:31.563Z,1003.06
2019-03-27T12:28:39.565Z,1003.07
2019-03-27T12:29:31.565Z,1003.06
2019-03-27T12:30:38.063Z,1003.02
2019-03-27T12:33:24.451Z,1002.94
2019-03-27T12:34:07.455Z,1002.95
2019-03-27T12:35:03.953Z,1002.94
2019-03-27T12:37:56.331Z,1002.96
2019-03-27T12:38:57.772Z,1002.97
2019-03-27T12:39:40.764Z,1003.27
2019-03-27T12:40:56.844Z,1003.32
2019-03-27T12:43:07.726Z,1004.01
2019-03-27T12:44:11.858Z,1004.02
2019-03-27T12:45:11.229Z,1003.97
2019-03-27T12:46:08.226Z,1003.97
2019-03-27T12:47:08.230Z,1003.89
2019-03-27T12:48:08.233Z,1003.82
2019-03-27T12:49:08.227Z,1003.88
2019-03-27T12:50:15.665Z,1003.97
2019-03-27T12:51:12.973Z,1003.95
2019-03-27T12:52:08.732Z,1003.81
2019-03-27T12:53:08.733Z,1003.62
2019-03-27T12:54:09.226Z,1003.66
2019-03-27T12:55:09.231Z,1003.71
2019-03-27T12:56:12.773Z,1003.69
2019-03-27T12:57:09.226Z,1003.70
2019-03-27T12:58:11.788Z,1003.63
2019-03-27T12:59:30.727Z,1003.61
2019-03-27T13:00:09.122Z,1003.68
2019-03-27T13:02:45.211Z,1003.43
2019-03-27T13:03:45.215Z,1003.26
2019-03-27T13:04:45.777Z,1002.90
2019-03-27T13:07:20.612Z,1002.89
2019-03-27T13:08:17.619Z,1002.86
2019-03-27T13:09:19.050Z,1002.74
2019-03-27T13:10:20.049Z,1002.76
2019-03-27T13:11:18.124Z,1002.77
2019-03-27T13:12:43.121Z,1002.81
2019-03-27T13:13:18.139Z,1002.81
2019-03-27T13:14:39.119Z,1003.15
2019-03-27T13:15:18.617Z,1003.27
2019-03-27T13:16:18.627Z,1003.21
2019-03-27T13:17:18.619Z,1003.14
2019-03-27T13:18:22.116Z,1003.14
2019-03-27T13:19:19.143Z,1003.10